Aviation Digital Data Service (ADDS)

Output produced by METARs form (0150 UTC 26 October 2014)
found at http://aviationweather.gov/adds/metars/
 
KCAR 260119Z 2601/2624 VRB03KT 5SM BR BKN005 OVC035 
     FM260500 13005KT 5SM -SHRA OVC008 
     FM260800 13005KT 4SM -SHRA BR OVC008 
     FM260900 13005KT 3SM -SHRA BR OVC005 
     FM261400 16004KT 4SM -SHRA OVC008 
     FM261700 VRB02KT 6SM -SHRA OVC015 
     FM262100 29004KT P6SM OVC020